createdAt,value
2017-06-05T00:00:24.334Z,32.76
2017-06-05T00:01:33.694Z,32.76
2017-06-05T00:02:42.720Z,32.67
2017-06-05T00:03:51.741Z,32.76
2017-06-05T00:05:00.481Z,32.96
2017-06-05T00:06:09.503Z,32.86
2017-06-05T00:07:18.561Z,32.76
2017-06-05T00:08:27.327Z,32.76
2017-06-05T00:09:36.958Z,32.86
2017-06-05T00:10:46.540Z,32.96
2017-06-05T00:11:55.846Z,32.67
2017-06-05T00:13:04.863Z,32.75
2017-06-05T00:14:14.831Z,32.96
2017-06-05T00:15:23.936Z,32.65
2017-06-05T00:16:32.969Z,32.76
2017-06-05T00:17:41.662Z,32.76
2017-06-05T00:18:50.983Z,32.67
2017-06-05T00:20:00.644Z,32.76
2017-06-05T00:21:09.397Z,32.84
2017-06-05T00:22:18.461Z,32.75
2017-06-05T00:23:27.223Z,32.57
2017-06-05T00:24:36.590Z,32.36
2017-06-05T00:25:45.654Z,32.65
2017-06-05T00:26:54.714Z,32.47
2017-06-05T00:28:03.775Z,32.56
2017-06-05T00:29:13.413Z,32.65
2017-06-05T00:30:22.751Z,32.56
2017-06-05T00:31:31.831Z,32.67
2017-06-05T00:32:40.585Z,32.75
2017-06-05T00:33:49.976Z,32.75
2017-06-05T00:34:59.346Z,32.65
2017-06-05T00:36:08.709Z,32.84
2017-06-05T00:37:17.762Z,32.75
2017-06-05T00:38:26.812Z,32.75
2017-06-05T00:39:36.475Z,32.84
2017-06-05T00:40:45.532Z,32.75
2017-06-05T00:41:54.279Z,32.75
2017-06-05T00:43:03.351Z,32.94
2017-06-05T00:44:12.413Z,32.84
2017-06-05T00:45:21.771Z,32.56
2017-06-05T00:46:30.510Z,32.84
2017-06-05T00:47:39.529Z,32.46
2017-06-05T00:48:49.169Z,32.36
2017-06-05T00:49:58.838Z,32.46
2017-06-05T00:51:07.596Z,32.46
2017-06-05T00:52:17.258Z,32.56
2017-06-05T00:53:26.601Z,32.26
2017-06-05T00:54:36.202Z,32.26
2017-06-05T00:55:45.534Z,32.26
2017-06-05T00:56:54.590Z,32.36
2017-06-05T00:58:04.264Z,32.46
2017-06-05T00:59:13.631Z,32.36
2017-06-05T01:00:22.362Z,32.26
2017-06-05T01:01:31.070Z,32.36
2017-06-05T01:02:40.125Z,32.26
2017-06-05T01:03:49.161Z,32.36
2017-06-05T01:04:58.158Z,32.26
2017-06-05T01:06:07.584Z,32.36
2017-06-05T01:07:16.337Z,32.26
2017-06-05T01:08:26.003Z,32.26
2017-06-05T01:09:35.064Z,32.26
2017-06-05T01:10:44.127Z,32.36
2017-06-05T01:11:52.887Z,32.07
2017-06-05T01:13:02.554Z,31.88
2017-06-05T01:14:12.219Z,31.68
2017-06-05T01:15:21.585Z,31.78
2017-06-05T01:16:30.639Z,31.88
2017-06-05T01:17:39.672Z,31.98
2017-06-05T01:18:48.685Z,31.88
2017-06-05T01:19:57.435Z,32.07
2017-06-05T01:21:06.494Z,31.88
2017-06-05T01:22:15.249Z,31.68
2017-06-05T01:23:24.287Z,31.59
2017-06-05T01:24:33.299Z,31.78
2017-06-05T01:25:42.356Z,31.98
2017-06-05T01:26:51.420Z,31.98
2017-06-05T01:28:01.293Z,31.88
2017-06-05T01:29:10.958Z,31.59
2017-06-05T01:30:20.012Z,31.68
2017-06-05T01:31:29.063Z,31.68
2017-06-05T01:32:38.098Z,31.3
2017-06-05T01:33:46.814Z,31.49
2017-06-05T01:34:56.062Z,31.2
2017-06-05T01:36:05.107Z,31.4
2017-06-05T01:37:14.768Z,31.28
2017-06-05T01:38:23.828Z,31.59
2017-06-05T01:39:32.884Z,31.01
2017-06-05T01:40:42.250Z,31.09
2017-06-05T01:41:51.304Z,30.7
2017-06-05T01:43:00.361Z,30.99
2017-06-05T01:44:09.728Z,31.09
2017-06-05T01:45:18.787Z,31.09
2017-06-05T01:46:27.839Z,30.9
2017-06-05T01:47:36.897Z,30.82
2017-06-05T01:48:46.562Z,30.99
2017-06-05T01:49:55.919Z,30.99
2017-06-05T01:51:05.279Z,30.9
2017-06-05T01:52:14.948Z,30.8
2017-06-05T01:53:24.317Z,30.99
2017-06-05T01:54:33.651Z,31.28
2017-06-05T01:55:42.674Z,30.61
2017-06-05T01:56:52.349Z,30.61
2017-06-05T01:58:01.687Z,30.61
2017-06-05T01:59:10.700Z,30.61
2017-06-05T02:00:19.767Z,30.51
2017-06-05T02:01:29.125Z,30.61
2017-06-05T02:02:38.491Z,30.51
2017-06-05T02:03:47.846Z,30.61
2017-06-05T02:04:57.221Z,30.41
2017-06-05T02:06:06.565Z,30.51
2017-06-05T02:07:15.581Z,30.61
2017-06-05T02:08:24.943Z,30.32
2017-06-05T02:09:34.283Z,29.93
2017-06-05T02:10:42.996Z,30.61
2017-06-05T02:11:52.354Z,30.61
2017-06-05T02:13:02.022Z,30.32
2017-06-05T02:14:11.393Z,30.61
2017-06-05T02:15:21.055Z,30.51
2017-06-05T02:16:29.833Z,30.03
2017-06-05T02:17:38.590Z,30.51
2017-06-05T02:18:47.960Z,30.12
2017-06-05T02:19:57.326Z,30.61
2017-06-05T02:21:06.717Z,29.93
2017-06-05T02:22:15.773Z,30.03
2017-06-05T02:23:24.822Z,30.03
2017-06-05T02:24:34.767Z,30.32
2017-06-05T02:25:43.786Z,30.01
2017-06-05T02:26:53.149Z,30.03
2017-06-05T02:28:02.202Z,29.83
2017-06-05T02:29:12.174Z,29.35
2017-06-05T02:30:22.138Z,29.74
2017-06-05T02:31:31.471Z,29.74
2017-06-05T02:32:41.088Z,30.03
2017-06-05T02:33:50.165Z,29.83
2017-06-05T02:34:59.224Z,30.12
2017-06-05T02:36:08.178Z,29.83
2017-06-05T02:37:17.549Z,29.83
2017-06-05T02:38:27.225Z,29.55
2017-06-05T02:39:36.595Z,29.83
2017-06-05T02:40:45.964Z,29.55
2017-06-05T02:41:55.037Z,29.53
2017-06-05T02:43:04.705Z,29.16
2017-06-05T02:44:14.069Z,29.74
2017-06-05T02:45:23.366Z,29.24
2017-06-05T02:46:32.386Z,28.66
2017-06-05T02:47:42.323Z,29.43
2017-06-05T02:48:52.006Z,29.43
2017-06-05T02:50:01.688Z,29.25
2017-06-05T02:51:10.757Z,29.16
2017-06-05T02:52:19.819Z,28.85
2017-06-05T02:53:29.181Z,29.05
2017-06-05T02:54:38.851Z,29.06
2017-06-05T02:55:47.619Z,28.47
2017-06-05T02:56:56.991Z,29.14
2017-06-05T02:58:05.762Z,28.95
2017-06-05T02:59:15.430Z,29.05
2017-06-05T03:00:24.796Z,28.76
2017-06-05T03:01:33.855Z,28.85
2017-06-05T03:02:43.538Z,28.66
2017-06-05T03:03:52.916Z,28.76
2017-06-05T03:05:01.987Z,28.47
2017-06-05T03:06:10.992Z,28.76
2017-06-05T03:07:20.318Z,28.47
2017-06-05T03:08:29.667Z,28.37
2017-06-05T03:09:39.007Z,28.76
2017-06-05T03:10:48.372Z,28.37
2017-06-05T03:11:57.439Z,28.47
2017-06-05T03:13:06.799Z,28.47
2017-06-05T03:14:16.490Z,28.47
2017-06-05T03:15:26.094Z,28.28
2017-06-05T03:16:35.095Z,28.28
2017-06-05T03:17:44.112Z,28.28
2017-06-05T03:18:53.482Z,28.56
2017-06-05T03:20:02.551Z,28.28
2017-06-05T03:21:11.926Z,28.28
2017-06-05T03:22:21.542Z,28.47
2017-06-05T03:23:30.914Z,28.56
2017-06-05T03:24:39.685Z,28.28
2017-06-05T03:25:48.445Z,28.37
2017-06-05T03:26:57.507Z,28.47
2017-06-05T03:28:06.444Z,28.18
2017-06-05T03:29:15.445Z,28.66
2017-06-05T03:30:25.075Z,28.28
2017-06-05T03:31:34.435Z,28.47
2017-06-05T03:32:43.505Z,28.28
2017-06-05T03:33:53.181Z,28.37
2017-06-05T03:35:03.137Z,28.47
2017-06-05T03:36:12.470Z,28.37
2017-06-05T03:37:21.854Z,28.08
2017-06-05T03:38:31.538Z,28.37
2017-06-05T03:39:40.602Z,28.37
2017-06-05T03:40:50.292Z,28.28
2017-06-05T03:41:59.663Z,28.37
2017-06-05T03:43:09.015Z,28.28
2017-06-05T03:44:18.380Z,28.37
2017-06-05T03:45:27.757Z,28.47
2017-06-05T03:46:37.125Z,28.08
2017-06-05T03:47:46.495Z,28.18
2017-06-05T03:48:55.574Z,28.37
2017-06-05T03:50:04.914Z,28.18
2017-06-05T03:51:13.932Z,28.28
2017-06-05T03:52:23.309Z,28.37
2017-06-05T03:53:32.354Z,28.39
2017-06-05T03:54:41.378Z,28.48
2017-06-05T03:55:51.057Z,28.39
2017-06-05T03:57:00.423Z,28.37
2017-06-05T03:58:09.694Z,28.76
2017-06-05T03:59:19.028Z,28.48
2017-06-05T04:00:28.704Z,28.28
2017-06-05T04:01:37.760Z,28.29
2017-06-05T04:02:46.782Z,28.58
2017-06-05T04:03:55.840Z,28.39
2017-06-05T04:05:05.182Z,28.09
2017-06-05T04:06:14.488Z,28.58
2017-06-05T04:07:23.510Z,28.29
2017-06-05T04:08:32.572Z,28.29
2017-06-05T04:09:42.218Z,28.29
2017-06-05T04:10:51.232Z,28
2017-06-05T04:12:00.603Z,28.29
2017-06-05T04:13:09.956Z,27.61
2017-06-05T04:14:19.330Z,27.71
2017-06-05T04:15:28.403Z,27.61
2017-06-05T04:16:37.441Z,27.71
2017-06-05T04:17:46.777Z,27.51
2017-06-05T04:18:56.125Z,27.51
2017-06-05T04:20:05.157Z,27.51
2017-06-05T04:21:14.308Z,27.51
2017-06-05T04:22:23.035Z,27.44
2017-06-05T04:23:32.718Z,27.13
2017-06-05T04:24:42.694Z,27.42
2017-06-05T04:25:52.073Z,27.14
2017-06-05T04:27:01.466Z,27.14
2017-06-05T04:28:10.530Z,27.14
2017-06-05T04:29:19.301Z,26.86
2017-06-05T04:30:28.063Z,26.95
2017-06-05T04:31:36.815Z,26.56
2017-06-05T04:32:45.579Z,26.86
2017-06-05T04:33:54.633Z,26.86
2017-06-05T04:35:03.701Z,26.66
2017-06-05T04:36:13.345Z,26.86
2017-06-05T04:37:22.080Z,26.76
2017-06-05T04:38:31.720Z,26.95
2017-06-05T04:39:41.687Z,26.76
2017-06-05T04:40:51.343Z,26.37
2017-06-05T04:42:00.105Z,26.76
2017-06-05T04:43:09.173Z,26.86
2017-06-05T04:44:18.206Z,26.95
2017-06-05T04:45:27.537Z,26.76
2017-06-05T04:46:36.937Z,26.86
2017-06-05T04:47:45.702Z,26.66
2017-06-05T04:48:55.051Z,26.86
2017-06-05T04:50:04.375Z,26.18
2017-06-05T04:51:13.437Z,26.76
2017-06-05T04:52:22.189Z,26.46
2017-06-05T04:53:31.820Z,26.76
2017-06-05T04:54:40.896Z,26.56
2017-06-05T04:55:50.268Z,26.76
2017-06-05T04:57:00.251Z,26.08
2017-06-05T04:58:09.821Z,25.89
2017-06-05T04:59:18.885Z,26.08
2017-06-05T05:00:28.834Z,26.08
2017-06-05T05:01:38.505Z,25.7
2017-06-05T05:02:47.855Z,25.4
2017-06-05T05:03:56.923Z,25.9
2017-06-05T05:05:06.589Z,25.79
2017-06-05T05:06:15.663Z,25.89
2017-06-05T05:07:24.727Z,25.9
2017-06-05T05:08:33.492Z,26.09
2017-06-05T05:09:42.550Z,25.81
2017-06-05T05:10:52.531Z,25.71
2017-06-05T05:12:01.903Z,26.28
2017-06-05T05:13:11.539Z,26.28
2017-06-05T05:14:21.768Z,26.48
2017-06-05T05:15:31.133Z,26.37
2017-06-05T05:16:39.919Z,26.57
2017-06-05T05:17:48.981Z,26.67
2017-06-05T05:18:58.052Z,26.67
2017-06-05T05:20:07.120Z,26.57
2017-06-05T05:21:16.188Z,26.29
2017-06-05T05:22:26.173Z,26.19
2017-06-05T05:23:35.549Z,26.37
2017-06-05T05:24:45.225Z,26.19
2017-06-05T05:25:54.607Z,26.87
2017-06-05T05:27:03.668Z,26.67
2017-06-05T05:28:12.406Z,26.77
2017-06-05T05:29:22.037Z,26.87
2017-06-05T05:30:31.103Z,26.97
2017-06-05T05:31:39.871Z,26.29
2017-06-05T05:32:48.614Z,26.09
2017-06-05T05:33:57.669Z,26.29
2017-06-05T05:35:07.046Z,26.57
2017-06-05T05:36:16.113Z,26.97
2017-06-05T05:37:25.457Z,26.57
2017-06-05T05:38:35.091Z,26.87
2017-06-05T05:39:44.775Z,26.87
2017-06-05T05:40:54.119Z,26.77
2017-06-05T05:42:03.166Z,26.39
2017-06-05T05:43:12.768Z,26.39
2017-06-05T05:44:22.074Z,26.87
2017-06-05T05:45:31.090Z,26.29
2017-06-05T05:46:39.846Z,26.39
2017-06-05T05:47:48.609Z,26.39
2017-06-05T05:48:58.283Z,26.39
2017-06-05T05:50:07.352Z,26.57
2017-06-05T05:51:16.725Z,26.48
2017-06-05T05:52:25.789Z,26.67
2017-06-05T05:53:35.485Z,26.29
2017-06-05T05:54:45.165Z,26.77
2017-06-05T05:55:54.231Z,26.4
2017-06-05T05:57:02.982Z,26.48
2017-06-05T05:58:12.657Z,26.57
2017-06-05T05:59:22.349Z,26.4
2017-06-05T06:00:31.408Z,26.01
2017-06-05T06:01:40.170Z,26.4
2017-06-05T06:02:49.236Z,26.59
2017-06-05T06:03:58.919Z,26.1
2017-06-05T06:05:07.689Z,26.88
2017-06-05T06:06:16.756Z,26.1
2017-06-05T06:07:25.833Z,26.78
2017-06-05T06:08:34.606Z,26.4
2017-06-05T06:09:43.679Z,26.78
2017-06-05T06:10:53.051Z,26.4
2017-06-05T06:12:02.111Z,26.68
2017-06-05T06:13:11.024Z,26.78
2017-06-05T06:14:20.087Z,26.88
2017-06-05T06:15:28.822Z,26.68
2017-06-05T06:16:38.151Z,26.3
2017-06-05T06:17:47.523Z,26.68
2017-06-05T06:18:56.590Z,26.78
2017-06-05T06:20:05.650Z,26.78
2017-06-05T06:21:14.721Z,26.68
2017-06-05T06:22:24.098Z,26.78
2017-06-05T06:23:33.145Z,26.78
2017-06-05T06:24:42.509Z,27.08
2017-06-05T06:25:51.882Z,26.88
2017-06-05T06:27:00.950Z,26.88
2017-06-05T06:28:10.303Z,26.88
2017-06-05T06:29:19.327Z,27.08
2017-06-05T06:30:28.103Z,27.08
2017-06-05T06:31:37.179Z,26.88
2017-06-05T06:32:45.938Z,26.88
2017-06-05T06:33:55.602Z,26.98
2017-06-05T06:35:04.321Z,26.98
2017-06-05T06:36:13.988Z,26.78
2017-06-05T06:37:23.364Z,26.7
2017-06-05T06:38:32.720Z,26.79
2017-06-05T06:39:42.040Z,26.59
2017-06-05T06:40:51.995Z,26.5
2017-06-05T06:42:01.046Z,26.79
2017-06-05T06:43:10.106Z,26.79
2017-06-05T06:44:20.054Z,26.98
2017-06-05T06:45:29.668Z,26.79
2017-06-05T06:46:38.712Z,26.41
2017-06-05T06:47:47.777Z,26.31
2017-06-05T06:48:57.146Z,26.41
2017-06-05T06:50:06.803Z,26.61
2017-06-05T06:51:15.562Z,26.31
2017-06-05T06:52:24.626Z,26.12
2017-06-05T06:53:34.001Z,25.83
2017-06-05T06:54:43.378Z,26.12
2017-06-05T06:55:52.751Z,26.31
2017-06-05T06:57:01.825Z,26.03
2017-06-05T06:58:10.941Z,26.03
2017-06-05T06:59:20.626Z,26.51
2017-06-05T07:00:29.999Z,25.54
2017-06-05T07:01:38.768Z,25.93
2017-06-05T07:02:48.145Z,26.21
2017-06-05T07:03:57.508Z,26.21
2017-06-05T07:05:06.879Z,26.21
2017-06-05T07:06:16.253Z,25.35
2017-06-05T07:07:25.631Z,26.12
2017-06-05T07:08:34.694Z,25.44
2017-06-05T07:09:43.734Z,25.93
2017-06-05T07:10:53.057Z,25.93
2017-06-05T07:12:01.789Z,25.73
2017-06-05T07:13:10.513Z,25.25
2017-06-05T07:14:19.582Z,25.63
2017-06-05T07:15:28.960Z,25.44
2017-06-05T07:16:38.041Z,25.93
2017-06-05T07:17:47.106Z,25.44
2017-06-05T07:18:55.839Z,25.73
2017-06-05T07:20:05.174Z,25.44
2017-06-05T07:21:14.526Z,25.25
2017-06-05T07:22:23.223Z,25.63
2017-06-05T07:23:32.564Z,25.73
2017-06-05T07:24:41.940Z,25.83
2017-06-05T07:25:50.708Z,25.63
2017-06-05T07:26:59.774Z,25.83
2017-06-05T07:28:09.451Z,25.83
2017-06-05T07:29:18.802Z,25.46
2017-06-05T07:30:27.839Z,25.94
2017-06-05T07:31:36.915Z,25.55
2017-06-05T07:32:45.952Z,25.73
2017-06-05T07:33:55.278Z,25.36
2017-06-05T07:35:04.640Z,25.65
2017-06-05T07:36:13.449Z,25.36
2017-06-05T07:37:22.210Z,25.84
2017-06-05T07:38:31.558Z,25.65
2017-06-05T07:39:40.257Z,25.55
2017-06-05T07:40:49.903Z,25.84
2017-06-05T07:41:59.271Z,26.14
2017-06-05T07:43:08.633Z,25.46
2017-06-05T07:44:17.378Z,24.97
2017-06-05T07:45:26.704Z,25.36
2017-06-05T07:46:35.770Z,25.07
2017-06-05T07:47:44.842Z,25.46
2017-06-05T07:48:54.205Z,24.58
2017-06-05T07:50:03.281Z,24.78
2017-06-05T07:51:12.609Z,25.07
2017-06-05T07:52:21.377Z,25.07
2017-06-05T07:53:30.445Z,24.49
2017-06-05T07:54:39.512Z,24.97
2017-06-05T07:55:48.278Z,24.97
2017-06-05T07:56:57.343Z,25.07
2017-06-05T07:58:06.426Z,24.87
2017-06-05T07:59:15.496Z,25.16
2017-06-05T08:00:24.245Z,24.49
2017-06-05T08:01:33.004Z,25.16
2017-06-05T08:02:41.743Z,25.07
2017-06-05T08:03:50.770Z,24.78
2017-06-05T08:04:59.532Z,24.58
2017-06-05T08:06:08.291Z,24.98
2017-06-05T08:07:17.360Z,25.07
2017-06-05T08:08:26.129Z,25.65
2017-06-05T08:09:34.890Z,25.07
2017-06-05T08:10:43.960Z,25.08
2017-06-05T08:11:52.721Z,24.88
2017-06-05T08:13:01.786Z,24.98
2017-06-05T08:14:10.550Z,24.98
2017-06-05T08:15:19.613Z,25.08
2017-06-05T08:16:28.408Z,24.98
2017-06-05T08:17:37.476Z,25.37
2017-06-05T08:18:46.234Z,25.08
2017-06-05T08:19:54.964Z,24.79
2017-06-05T08:21:04.031Z,24.69
2017-06-05T08:22:12.795Z,25.08
2017-06-05T08:23:22.164Z,24.98
2017-06-05T08:24:31.187Z,25.08
2017-06-05T08:25:40.524Z,24.98
2017-06-05T08:26:49.591Z,25.08
2017-06-05T08:27:58.667Z,24.98
2017-06-05T08:29:07.427Z,24.79
2017-06-05T08:30:16.492Z,24.98
2017-06-05T08:31:25.256Z,24.98
2017-06-05T08:32:34.018Z,25.08
2017-06-05T08:33:42.751Z,25.08
2017-06-05T08:34:52.054Z,24.98
2017-06-05T08:36:01.396Z,25.18
2017-06-05T08:37:10.425Z,24.8
2017-06-05T08:38:19.488Z,24.8
2017-06-05T08:39:28.247Z,25.19
2017-06-05T08:40:37.290Z,24.61
2017-06-05T08:41:46.013Z,24.71
2017-06-05T08:42:55.379Z,24.6
2017-06-05T08:44:04.751Z,24.88
2017-06-05T08:45:13.516Z,24.51
2017-06-05T08:46:22.234Z,24.51
2017-06-05T08:47:31.263Z,23.93
2017-06-05T08:48:40.029Z,24.61
2017-06-05T08:49:49.395Z,24.61
2017-06-05T08:50:58.454Z,24.51
2017-06-05T08:52:07.192Z,24.51
2017-06-05T08:53:15.914Z,24.51
2017-06-05T08:54:24.672Z,24.51
2017-06-05T08:55:33.434Z,23.64
2017-06-05T08:56:42.801Z,24.12
2017-06-05T08:57:51.898Z,24.22
2017-06-05T08:59:00.655Z,23.93
2017-06-05T09:00:09.413Z,24.22
2017-06-05T09:01:18.475Z,24.22
2017-06-05T09:02:27.520Z,23.83
2017-06-05T09:03:37.156Z,23.93
2017-06-05T09:04:46.231Z,23.74
2017-06-05T09:05:55.597Z,23.44
2017-06-05T09:07:04.331Z,23.54
2017-06-05T09:08:13.070Z,23.54
2017-06-05T09:09:22.095Z,23.64
2017-06-05T09:10:30.859Z,23.74
2017-06-05T09:11:39.925Z,23.93
2017-06-05T09:12:49.305Z,23.64
2017-06-05T09:13:58.033Z,23.64
2017-06-05T09:15:07.406Z,23.64
2017-06-05T09:16:16.145Z,23.74
2017-06-05T09:17:25.203Z,23.83
2017-06-05T09:18:34.264Z,23.74
2017-06-05T09:19:43.639Z,23.64
2017-06-05T09:20:52.403Z,23.54
2017-06-05T09:22:01.476Z,23.83
2017-06-05T09:23:11.000Z,23.74
2017-06-05T09:24:20.366Z,23.64
2017-06-05T09:25:29.442Z,23.74
2017-06-05T09:26:38.176Z,23.35
2017-06-05T09:27:47.197Z,23.94
2017-06-05T09:28:56.868Z,23.94
2017-06-05T09:30:06.231Z,23.93
2017-06-05T09:31:15.967Z,23.74
2017-06-05T09:32:25.037Z,23.25
2017-06-05T09:33:34.101Z,23.93
2017-06-05T09:34:43.176Z,23.36
2017-06-05T09:35:52.253Z,23.65
2017-06-05T09:37:01.323Z,23.75
2017-06-05T09:38:10.087Z,23.85
2017-06-05T09:39:19.150Z,23.55
2017-06-05T09:40:28.206Z,23.75
2017-06-05T09:41:36.965Z,23.75
2017-06-05T09:42:45.703Z,23.94
2017-06-05T09:43:54.399Z,24.04
2017-06-05T09:45:03.390Z,23.55
2017-06-05T09:46:12.412Z,24.13
2017-06-05T09:47:21.175Z,24.23
2017-06-05T09:48:30.245Z,24.23
2017-06-05T09:49:39.025Z,24.23
2017-06-05T09:50:48.074Z,23.65
2017-06-05T09:51:56.845Z,23.85
2017-06-05T09:53:05.615Z,24.04
2017-06-05T09:54:14.381Z,24.04
2017-06-05T09:55:23.448Z,24.23
2017-06-05T09:56:32.819Z,23.75
2017-06-05T09:57:41.897Z,23.65
2017-06-05T09:58:50.955Z,23.65
2017-06-05T09:59:59.718Z,23.94
2017-06-05T10:01:08.465Z,23.75
2017-06-05T10:02:17.185Z,23.75
2017-06-05T10:03:25.944Z,24.23
2017-06-05T10:04:35.010Z,24.23
2017-06-05T10:05:43.768Z,24.33
2017-06-05T10:06:52.812Z,23.85
2017-06-05T10:08:01.565Z,24.13
2017-06-05T10:09:10.335Z,24.24
2017-06-05T10:10:19.711Z,24.43
2017-06-05T10:11:29.081Z,24.23
2017-06-05T10:12:38.123Z,24.23
2017-06-05T10:13:46.827Z,24.05
2017-06-05T10:14:55.851Z,24.24
2017-06-05T10:16:05.219Z,23.95
2017-06-05T10:17:13.983Z,23.55
2017-06-05T10:18:22.747Z,23.55
2017-06-05T10:19:31.815Z,24.04
2017-06-05T10:20:40.584Z,23.94
2017-06-05T10:21:49.949Z,23.85
2017-06-05T10:22:59.015Z,23.75
2017-06-05T10:24:08.080Z,23.94
2017-06-05T10:25:17.445Z,24.23
2017-06-05T10:26:26.204Z,24.23
2017-06-05T10:27:35.587Z,24.13
2017-06-05T10:28:44.650Z,24.33
2017-06-05T10:29:53.718Z,24.33
2017-06-05T10:31:02.754Z,24.43
2017-06-05T10:32:11.474Z,23.75
2017-06-05T10:33:20.540Z,23.75
2017-06-05T10:34:29.306Z,23.55
2017-06-05T10:35:38.070Z,23.75
2017-06-05T10:36:47.145Z,23.75
2017-06-05T10:37:55.901Z,23.36
2017-06-05T10:39:04.975Z,23.65
2017-06-05T10:40:13.737Z,23.55
2017-06-05T10:41:22.769Z,23.65
2017-06-05T10:42:32.100Z,23.85
2017-06-05T10:43:40.860Z,23.85
2017-06-05T10:44:49.932Z,23.65
2017-06-05T10:45:59.300Z,23.85
2017-06-05T10:47:08.061Z,23.55
2017-06-05T10:48:16.832Z,23.64
2017-06-05T10:49:25.902Z,23.65
2017-06-05T10:50:34.974Z,23.55
2017-06-05T10:51:44.350Z,23.54
2017-06-05T10:52:53.415Z,23.54
2017-06-05T10:54:02.179Z,23.16
2017-06-05T10:55:10.935Z,23.85
2017-06-05T10:56:20.002Z,23.26
2017-06-05T10:57:29.659Z,23.65
2017-06-05T10:58:39.294Z,23.54
2017-06-05T10:59:48.051Z,23.64
2017-06-05T11:00:57.113Z,23.35
2017-06-05T11:02:05.886Z,23.75
2017-06-05T11:03:14.630Z,23.83
2017-06-05T11:04:24.004Z,23.35
2017-06-05T11:05:33.048Z,23.83
2017-06-05T11:06:41.770Z,23.64
2017-06-05T11:07:50.817Z,23.64
2017-06-05T11:08:59.578Z,23.64
2017-06-05T11:10:08.319Z,23.75
2017-06-05T11:11:17.321Z,23.46
2017-06-05T11:12:26.038Z,23.75
2017-06-05T11:13:34.799Z,23.85
2017-06-05T11:14:43.562Z,23.75
2017-06-05T11:15:52.943Z,23.55
2017-06-05T11:17:02.004Z,23.55
2017-06-05T11:18:11.360Z,23.36
2017-06-05T11:19:20.120Z,23.26
2017-06-05T11:20:28.886Z,22.88
2017-06-05T11:21:37.645Z,23.36
2017-06-05T11:22:46.412Z,23.46
2017-06-05T11:23:55.487Z,23.16
2017-06-05T11:25:04.860Z,23.46
2017-06-05T11:26:14.477Z,23.26
2017-06-05T11:27:23.239Z,23.46
2017-06-05T11:28:31.998Z,23.26
2017-06-05T11:29:40.770Z,23.46
2017-06-05T11:30:50.134Z,22.97
2017-06-05T11:31:59.507Z,22.89
2017-06-05T11:33:08.272Z,22.88
2017-06-05T11:34:17.037Z,22.68
2017-06-05T11:35:26.096Z,22.68
2017-06-05T11:36:34.866Z,22.6
2017-06-05T11:37:43.631Z,23.36
2017-06-05T11:38:52.707Z,23.26
2017-06-05T11:40:01.727Z,23.36
2017-06-05T11:41:10.494Z,23.26
2017-06-05T11:42:20.179Z,23.16
2017-06-05T11:43:28.944Z,23.07
2017-06-05T11:44:38.018Z,23.26
2017-06-05T11:45:46.778Z,23.57
2017-06-05T11:46:55.546Z,23.57
2017-06-05T11:48:04.618Z,23.26
2017-06-05T11:49:13.720Z,23.66
2017-06-05T11:50:22.459Z,23.86
2017-06-05T11:51:31.786Z,23.66
2017-06-05T11:52:40.528Z,23.65
2017-06-05T11:53:49.248Z,23.47
2017-06-05T11:54:58.011Z,23.37
2017-06-05T11:56:07.381Z,23.86
2017-06-05T11:57:16.141Z,23.27
2017-06-05T11:58:24.901Z,23.27
2017-06-05T11:59:33.972Z,23.47
2017-06-05T12:00:42.755Z,23.18
2017-06-05T12:01:51.519Z,23.27
2017-06-05T12:03:00.276Z,23.08
2017-06-05T12:04:09.010Z,23.47
2017-06-05T12:05:17.705Z,22.5
2017-06-05T12:06:26.743Z,22.6
2017-06-05T12:07:35.485Z,22.89
2017-06-05T12:08:44.499Z,22.99
2017-06-05T12:09:53.554Z,23.37
2017-06-05T12:11:02.936Z,23.08
2017-06-05T12:12:12.709Z,23.47
2017-06-05T12:13:21.480Z,23.27
2017-06-05T12:14:30.517Z,23.57
2017-06-05T12:15:39.855Z,23.47
2017-06-05T12:16:48.881Z,22.69
2017-06-05T12:17:57.943Z,23.18
2017-06-05T12:19:06.712Z,23.08
2017-06-05T12:20:15.783Z,23.37
2017-06-05T12:21:25.153Z,23.08
2017-06-05T12:22:34.528Z,23.27
2017-06-05T12:23:43.598Z,23.27
2017-06-05T12:24:52.335Z,23.18
2017-06-05T12:26:01.055Z,22.5
2017-06-05T12:27:10.121Z,23.27
2017-06-05T12:28:19.512Z,23.37
2017-06-05T12:29:28.839Z,23.37
2017-06-05T12:30:38.214Z,23.18
2017-06-05T12:31:46.966Z,23.37
2017-06-05T12:32:56.649Z,23.08
2017-06-05T12:34:05.398Z,22.79
2017-06-05T12:35:14.422Z,23.08
2017-06-05T12:36:23.669Z,23.27
2017-06-05T12:37:32.700Z,23.18
2017-06-05T12:38:41.757Z,22.99
2017-06-05T12:39:50.823Z,23.18
2017-06-05T12:40:59.895Z,22.69
2017-06-05T12:42:08.653Z,22.6
2017-06-05T12:43:17.961Z,23.18
2017-06-05T12:44:26.682Z,22.69
2017-06-05T12:45:35.474Z,23.08
2017-06-05T12:46:45.129Z,22.69
2017-06-05T12:47:53.890Z,22.79
2017-06-05T12:49:03.561Z,22.69
2017-06-05T12:50:12.359Z,22.89
2017-06-05T12:51:21.735Z,23.18
2017-06-05T12:52:30.496Z,22.99
2017-06-05T12:53:39.869Z,23.37
2017-06-05T12:54:48.633Z,23.47
2017-06-05T12:55:57.699Z,23.37
2017-06-05T12:57:07.309Z,23.66
2017-06-05T12:58:16.640Z,23.66
2017-06-05T12:59:26.005Z,23.57
2017-06-05T13:00:34.776Z,23.65
2017-06-05T13:01:43.848Z,23.57
2017-06-05T13:02:52.618Z,23.85
2017-06-05T13:04:01.391Z,23.76
2017-06-05T13:05:10.161Z,23.66
2017-06-05T13:06:18.927Z,23.86
2017-06-05T13:07:27.693Z,23.47
2017-06-05T13:08:36.756Z,23.57
2017-06-05T13:09:45.516Z,23.65
2017-06-05T13:10:54.282Z,23.08
2017-06-05T13:12:03.344Z,23.08
2017-06-05T13:13:13.035Z,23.55
2017-06-05T13:14:22.095Z,23.76
2017-06-05T13:15:31.153Z,23.47
2017-06-05T13:16:39.910Z,24.23
2017-06-05T13:17:48.975Z,24.62
2017-06-05T13:18:57.736Z,24.52
2017-06-05T13:20:06.498Z,24.72
2017-06-05T13:21:15.580Z,24.72
2017-06-05T13:22:24.337Z,24.43
2017-06-05T13:23:33.408Z,24.52
2017-06-05T13:24:42.462Z,24.52
2017-06-05T13:25:51.225Z,23.94
2017-06-05T13:27:00.303Z,24.43
2017-06-05T13:28:09.069Z,24.52
2017-06-05T13:29:18.104Z,24.23
2017-06-05T13:30:26.837Z,24.52
2017-06-05T13:31:35.575Z,24.33
2017-06-05T13:32:44.640Z,23.94
2017-06-05T13:33:53.408Z,24.04
2017-06-05T13:35:02.168Z,23.75
2017-06-05T13:36:11.212Z,24.23
2017-06-05T13:37:20.228Z,23.75
2017-06-05T13:38:29.567Z,23.85
2017-06-05T13:39:38.312Z,23.65
2017-06-05T13:40:47.031Z,23.94
2017-06-05T13:41:56.101Z,24.13
2017-06-05T13:43:05.449Z,24.43
2017-06-05T13:44:14.470Z,24.23
2017-06-05T13:45:23.542Z,24.43
2017-06-05T13:46:32.609Z,24.82
2017-06-05T13:47:41.673Z,25.2
2017-06-05T13:48:50.434Z,24.72
2017-06-05T13:49:59.508Z,24.82
2017-06-05T13:51:08.576Z,24.62
2017-06-05T13:52:17.344Z,24.23
2017-06-05T13:53:26.440Z,24.43
2017-06-05T13:54:35.212Z,24.72
2017-06-05T13:55:44.271Z,24.33
2017-06-05T13:56:53.943Z,24.62
2017-06-05T13:58:02.713Z,24.43
2017-06-05T13:59:11.447Z,24.72
2017-06-05T14:00:20.628Z,24.52
2017-06-05T14:01:29.694Z,24.43
2017-06-05T14:02:38.435Z,24.04
2017-06-05T14:03:47.161Z,23.65
2017-06-05T14:04:56.214Z,23.36
2017-06-05T14:06:05.239Z,23.75
2017-06-05T14:07:14.144Z,24.33
2017-06-05T14:08:22.902Z,24.52
2017-06-05T14:09:31.662Z,24.82
2017-06-05T14:10:40.724Z,24.43
2017-06-05T14:11:50.306Z,23.85
2017-06-05T14:12:59.092Z,24.52
2017-06-05T14:14:08.161Z,23.46
2017-06-05T14:15:16.896Z,23.75
2017-06-05T14:16:25.620Z,23.46
2017-06-05T14:17:34.681Z,22.97
2017-06-05T14:18:43.436Z,23.65
2017-06-05T14:19:52.502Z,23.55
2017-06-05T14:21:01.254Z,23.65
2017-06-05T14:22:10.288Z,24.13
2017-06-05T14:23:19.933Z,23.75
2017-06-05T14:24:28.973Z,23.75
2017-06-05T14:25:38.324Z,23.94
2017-06-05T14:26:47.360Z,23.26
2017-06-05T14:27:56.122Z,23.85
2017-06-05T14:29:04.885Z,23.16
2017-06-05T14:30:14.230Z,23.16
2017-06-05T14:31:23.245Z,23.85
2017-06-05T14:32:32.566Z,23.75
2017-06-05T14:33:41.620Z,23.94
2017-06-05T14:34:50.682Z,24.13
2017-06-05T14:35:59.440Z,23.93
2017-06-05T14:37:08.483Z,23.36
2017-06-05T14:38:17.806Z,23.74
2017-06-05T14:39:26.879Z,24.13
2017-06-05T14:40:35.941Z,23.36
2017-06-05T14:41:44.678Z,23.36
2017-06-05T14:42:53.395Z,23.65
2017-06-05T14:44:02.156Z,23.65
2017-06-05T14:45:11.223Z,23.65
2017-06-05T14:46:19.963Z,23.75
2017-06-05T14:47:29.328Z,23.46
2017-06-05T14:48:38.063Z,23.75
2017-06-05T14:49:46.777Z,23.75
2017-06-05T14:50:55.826Z,23.55